Austerlitz, New York
Current Conditions -  °F | °C
As of 9:54 PM on Friday 19 Dec 2014 (Local Time) from KPSF Reporting Station
Overcast Overcast  
Wind Chill: 15°   Ceiling: 1200
Heat Index: 24°   Visibility: 10mi
Dew Point: 20°   Wind: 8mph
Humidity: 84%   Direction: 330°NNW
Pressure: 30.09"   Gusts: NA
Location:  42.31°N, 73.47°W
Report Text: KPSF 200254Z AUTO 33007KT 10SM OVC012 M04/M07 A3009 RMK AO2 SLP205 T10441067 51009
Loading
Personal Weather Stations






























Interactive Weather Map New forecast layout! Learn more

10-Day Weather Forecast

Advertisements
Track Severe Weather on mobile